sensor_id;sensor_type;location;lat;lon;timestamp;temperature;humidity
25811;DHT22;13645;52.460;13.910;2022-10-16T00:01:28;13.70;99.90
25811;DHT22;13645;52.460;13.910;2022-10-16T00:03:57;13.60;99.90
25811;DHT22;13645;52.460;13.910;2022-10-16T00:06:25;13.60;99.90
25811;DHT22;13645;52.460;13.910;2022-10-16T00:08:52;13.60;99.90
25811;DHT22;13645;52.460;13.910;2022-10-16T00:11:21;13.70;99.90
25811;DHT22;13645;52.460;13.910;2022-10-16T00:13:50;13.70;99.90
25811;DHT22;13645;52.460;13.910;2022-10-16T00:16:19;13.70;99.90
25811;DHT22;13645;52.460;13.910;2022-10-16T00:18:46;13.70;99.90
25811;DHT22;13645;52.460;13.910;2022-10-16T00:21:19;13.80;99.90
25811;DHT22;13645;52.460;13.910;2022-10-16T00:23:46;13.90;99.90
25811;DHT22;13645;52.460;13.910;2022-10-16T00:26:17;13.90;99.90
25811;DHT22;13645;52.460;13.910;2022-10-16T00:28:48;14.00;99.90
25811;DHT22;13645;52.460;13.910;2022-10-16T00:31:17;14.00;99.90
25811;DHT22;13645;52.460;13.910;2022-10-16T00:33:44;14.00;99.90
25811;DHT22;13645;52.460;13.910;2022-10-16T00:36:15;14.00;99.90
25811;DHT22;13645;52.460;13.910;2022-10-16T00:38:42;14.00;99.90
25811;DHT22;13645;52.460;13.910;2022-10-16T00:41:15;13.90;99.90
25811;DHT22;13645;52.460;13.910;2022-10-16T00:43:47;14.00;99.90
25811;DHT22;13645;52.460;13.910;2022-10-16T00:46:40;14.00;99.90
25811;DHT22;13645;52.460;13.910;2022-10-16T00:49:13;14.10;99.90
25811;DHT22;13645;52.460;13.910;2022-10-16T00:51:49;14.00;99.90
25811;DHT22;13645;52.460;13.910;2022-10-16T00:54:25;14.10;99.90
25811;DHT22;13645;52.460;13.910;2022-10-16T00:56:53;14.10;99.90
25811;DHT22;13645;52.460;13.910;2022-10-16T00:59:27;14.10;99.90
25811;DHT22;13645;52.460;13.910;2022-10-16T01:01:55;14.10;99.90
25811;DHT22;13645;52.460;13.910;2022-10-16T01:04:23;14.20;99.90
25811;DHT22;13645;52.460;13.910;2022-10-16T01:07:18;14.10;99.90
25811;DHT22;13645;52.460;13.910;2022-10-16T01:12:59;14.10;99.90
25811;DHT22;13645;52.460;13.910;2022-10-16T01:15:43;14.10;99.90
25811;DHT22;13645;52.460;13.910;2022-10-16T01:18:38;14.10;99.90
25811;DHT22;13645;52.460;13.910;2022-10-16T01:21:56;14.10;99.90
25811;DHT22;13645;52.460;13.910;2022-10-16T01:27:13;14.10;99.90
25811;DHT22;13645;52.460;13.910;2022-10-16T01:29:49;14.10;99.90
25811;DHT22;13645;52.460;13.910;2022-10-16T01:35:26;14.10;99.90
25811;DHT22;13645;52.460;13.910;2022-10-16T01:38:03;14.20;99.90
25811;DHT22;13645;52.460;13.910;2022-10-16T01:40:33;14.10;99.90
25811;DHT22;13645;52.460;13.910;2022-10-16T01:43:22;14.20;99.90
25811;DHT22;13645;52.460;13.910;2022-10-16T01:45:51;14.20;99.90
25811;DHT22;13645;52.460;13.910;2022-10-16T01:48:19;14.20;99.90
25811;DHT22;13645;52.460;13.910;2022-10-16T01:50:57;14.20;99.90
25811;DHT22;13645;52.460;13.910;2022-10-16T01:53:25;14.20;99.90
25811;DHT22;13645;52.460;13.910;2022-10-16T01:55:54;14.30;99.90
25811;DHT22;13645;52.460;13.910;2022-10-16T01:58:22;14.30;99.90
25811;DHT22;13645;52.460;13.910;2022-10-16T02:00:52;14.20;99.90
25811;DHT22;13645;52.460;13.910;2022-10-16T02:03:21;14.20;99.90
25811;DHT22;13645;52.460;13.910;2022-10-16T02:05:55;14.20;99.90
25811;DHT22;13645;52.460;13.910;2022-10-16T02:08:24;14.10;99.90
25811;DHT22;13645;52.460;13.910;2022-10-16T02:10:52;14.10;99.90
25811;DHT22;13645;52.460;13.910;2022-10-16T02:13:23;14.10;99.90
25811;DHT22;13645;52.460;13.910;2022-10-16T02:15:52;14.10;99.90
25811;DHT22;13645;52.460;13.910;2022-10-16T02:18:19;14.00;99.90
25811;DHT22;13645;52.460;13.910;2022-10-16T02:20:57;14.10;99.90
25811;DHT22;13645;52.460;13.910;2022-10-16T02:26:15;14.20;99.90
25811;DHT22;13645;52.460;13.910;2022-10-16T02:28:49;14.10;99.90
25811;DHT22;13645;52.460;13.910;2022-10-16T02:31:27;14.10;99.90
25811;DHT22;13645;52.460;13.910;2022-10-16T02:33:58;14.10;99.90
25811;DHT22;13645;52.460;13.910;2022-10-16T02:36:26;14.20;99.90
25811;DHT22;13645;52.460;13.910;2022-10-16T02:38:53;14.10;99.90
25811;DHT22;13645;52.460;13.910;2022-10-16T02:41:22;14.10;99.90
25811;DHT22;13645;52.460;13.910;2022-10-16T02:43:49;14.10;99.90
25811;DHT22;13645;52.460;13.910;2022-10-16T02:46:17;14.10;99.90
25811;DHT22;13645;52.460;13.910;2022-10-16T02:48:43;14.10;99.90
25811;DHT22;13645;52.460;13.910;2022-10-16T02:51:10;14.10;99.90
25811;DHT22;13645;52.460;13.910;2022-10-16T02:53:37;14.00;99.90
25811;DHT22;13645;52.460;13.910;2022-10-16T02:56:06;14.00;99.90
25811;DHT22;13645;52.460;13.910;2022-10-16T02:58:36;14.00;99.90
25811;DHT22;13645;52.460;13.910;2022-10-16T03:01:03;14.00;99.90
25811;DHT22;13645;52.460;13.910;2022-10-16T03:03:29;13.90;99.90
25811;DHT22;13645;52.460;13.910;2022-10-16T03:05:56;13.90;99.90
25811;DHT22;13645;52.460;13.910;2022-10-16T03:08:23;14.00;99.90
25811;DHT22;13645;52.460;13.910;2022-10-16T03:10:52;14.00;99.90
25811;DHT22;13645;52.460;13.910;2022-10-16T03:13:19;14.10;99.90
25811;DHT22;13645;52.460;13.910;2022-10-16T03:15:53;14.10;99.90
25811;DHT22;13645;52.460;13.910;2022-10-16T03:18:20;14.10;99.90
25811;DHT22;13645;52.460;13.910;2022-10-16T03:20:49;14.10;99.90
25811;DHT22;13645;52.460;13.910;2022-10-16T03:23:18;14.10;99.90
25811;DHT22;13645;52.460;13.910;2022-10-16T03:25:45;14.10;99.90
25811;DHT22;13645;52.460;13.910;2022-10-16T03:28:14;14.20;99.90
25811;DHT22;13645;52.460;13.910;2022-10-16T03:30:40;14.20;99.90
25811;DHT22;13645;52.460;13.910;2022-10-16T03:33:07;14.10;99.90
25811;DHT22;13645;52.460;13.910;2022-10-16T03:35:35;14.10;99.90
25811;DHT22;13645;52.460;13.910;2022-10-16T03:38:02;14.20;99.90
25811;DHT22;13645;52.460;13.910;2022-10-16T03:40:31;14.10;99.90
25811;DHT22;13645;52.460;13.910;2022-10-16T03:42:59;14.20;99.90
25811;DHT22;13645;52.460;13.910;2022-10-16T03:45:25;14.20;99.90
25811;DHT22;13645;52.460;13.910;2022-10-16T03:47:56;14.10;99.90
25811;DHT22;13645;52.460;13.910;2022-10-16T03:50:26;14.10;99.90
25811;DHT22;13645;52.460;13.910;2022-10-16T03:52:53;14.10;99.90
25811;DHT22;13645;52.460;13.910;2022-10-16T03:55:20;14.10;99.90
25811;DHT22;13645;52.460;13.910;2022-10-16T03:57:46;14.10;99.90
25811;DHT22;13645;52.460;13.910;2022-10-16T04:00:13;14.00;99.90
25811;DHT22;13645;52.460;13.910;2022-10-16T04:02:42;14.00;99.90
25811;DHT22;13645;52.460;13.910;2022-10-16T04:05:09;13.90;99.90
25811;DHT22;13645;52.460;13.910;2022-10-16T04:07:36;13.90;99.90
25811;DHT22;13645;52.460;13.910;2022-10-16T04:10:03;13.90;99.90
25811;DHT22;13645;52.460;13.910;2022-10-16T04:12:30;13.90;99.90
25811;DHT22;13645;52.460;13.910;2022-10-16T04:14:57;13.90;99.90
25811;DHT22;13645;52.460;13.910;2022-10-16T04:17:24;13.90;99.90
25811;DHT22;13645;52.460;13.910;2022-10-16T04:19:51;13.80;99.90
25811;DHT22;13645;52.460;13.910;2022-10-16T04:22:18;13.90;99.90
25811;DHT22;13645;52.460;13.910;2022-10-16T04:24:53;13.80;99.90
25811;DHT22;13645;52.460;13.910;2022-10-16T04:27:20;13.80;99.90
25811;DHT22;13645;52.460;13.910;2022-10-16T04:29:47;13.80;99.90
25811;DHT22;13645;52.460;13.910;2022-10-16T04:32:16;13.80;99.90
25811;DHT22;13645;52.460;13.910;2022-10-16T04:34:43;13.80;99.90
25811;DHT22;13645;52.460;13.910;2022-10-16T04:37:10;13.80;99.90
25811;DHT22;13645;52.460;13.910;2022-10-16T04:39:36;13.70;99.90
25811;DHT22;13645;52.460;13.910;2022-10-16T04:42:03;13.70;99.90
25811;DHT22;13645;52.460;13.910;2022-10-16T04:44:30;13.70;99.90
25811;DHT22;13645;52.460;13.910;2022-10-16T04:46:56;13.70;99.90
25811;DHT22;13645;52.460;13.910;2022-10-16T04:49:23;13.70;99.90
25811;DHT22;13645;52.460;13.910;2022-10-16T04:51:53;13.70;99.90
25811;DHT22;13645;52.460;13.910;2022-10-16T04:54:19;13.80;99.90
25811;DHT22;13645;52.460;13.910;2022-10-16T04:56:46;13.70;99.90
25811;DHT22;13645;52.460;13.910;2022-10-16T04:59:17;13.70;99.90
25811;DHT22;13645;52.460;13.910;2022-10-16T05:01:45;13.70;99.90
25811;DHT22;13645;52.460;13.910;2022-10-16T05:04:12;13.60;99.90
25811;DHT22;13645;52.460;13.910;2022-10-16T05:06:39;13.60;99.90
25811;DHT22;13645;52.460;13.910;2022-10-16T05:09:06;13.50;99.90
25811;DHT22;13645;52.460;13.910;2022-10-16T05:11:33;13.50;99.90
25811;DHT22;13645;52.460;13.910;2022-10-16T05:14:04;13.50;99.90
25811;DHT22;13645;52.460;13.910;2022-10-16T05:16:36;13.40;99.90
25811;DHT22;13645;52.460;13.910;2022-10-16T05:19:03;13.40;99.90
25811;DHT22;13645;52.460;13.910;2022-10-16T05:21:53;13.30;99.90
25811;DHT22;13645;52.460;13.910;2022-10-16T05:24:20;13.30;99.90
25811;DHT22;13645;52.460;13.910;2022-10-16T05:26:46;13.30;99.90
25811;DHT22;13645;52.460;13.910;2022-10-16T05:29:13;13.20;99.90
25811;DHT22;13645;52.460;13.910;2022-10-16T05:31:40;13.20;99.90
25811;DHT22;13645;52.460;13.910;2022-10-16T05:34:07;13.20;99.90
25811;DHT22;13645;52.460;13.910;2022-10-16T05:36:36;13.20;99.90
25811;DHT22;13645;52.460;13.910;2022-10-16T05:39:06;13.20;99.90
25811;DHT22;13645;52.460;13.910;2022-10-16T05:41:50;13.20;99.90
25811;DHT22;13645;52.460;13.910;2022-10-16T05:44:24;13.20;99.90
25811;DHT22;13645;52.460;13.910;2022-10-16T05:46:51;13.20;99.90
25811;DHT22;13645;52.460;13.910;2022-10-16T05:49:18;13.20;99.90
25811;DHT22;13645;52.460;13.910;2022-10-16T05:51:44;13.20;99.90
25811;DHT22;13645;52.460;13.910;2022-10-16T05:54:11;13.20;99.90
25811;DHT22;13645;52.460;13.910;2022-10-16T05:56:38;13.30;99.90
25811;DHT22;13645;52.460;13.910;2022-10-16T05:59:05;13.30;99.90
25811;DHT22;13645;52.460;13.910;2022-10-16T06:01:32;13.30;99.90
25811;DHT22;13645;52.460;13.910;2022-10-16T06:03:59;13.30;99.90
25811;DHT22;13645;52.460;13.910;2022-10-16T06:06:27;13.40;99.90
25811;DHT22;13645;52.460;13.910;2022-10-16T06:08:57;13.40;99.90
25811;DHT22;13645;52.460;13.910;2022-10-16T06:11:26;13.40;99.90
25811;DHT22;13645;52.460;13.910;2022-10-16T06:13:58;13.40;99.90
25811;DHT22;13645;52.460;13.910;2022-10-16T06:16:26;13.40;99.90
25811;DHT22;13645;52.460;13.910;2022-10-16T06:18:55;13.40;99.90
25811;DHT22;13645;52.460;13.910;2022-10-16T06:21:27;13.40;99.90
25811;DHT22;13645;52.460;13.910;2022-10-16T06:23:55;13.40;99.90
25811;DHT22;13645;52.460;13.910;2022-10-16T06:26:25;13.40;99.90
25811;DHT22;13645;52.460;13.910;2022-10-16T06:28:54;13.50;99.90
25811;DHT22;13645;52.460;13.910;2022-10-16T06:31:21;13.50;99.90
25811;DHT22;13645;52.460;13.910;2022-10-16T06:33:51;13.60;99.90
25811;DHT22;13645;52.460;13.910;2022-10-16T06:36:18;13.60;99.90
25811;DHT22;13645;52.460;13.910;2022-10-16T06:38:45;13.60;99.90
25811;DHT22;13645;52.460;13.910;2022-10-16T06:41:14;13.60;99.90
25811;DHT22;13645;52.460;13.910;2022-10-16T06:43:41;13.70;99.90
25811;DHT22;13645;52.460;13.910;2022-10-16T06:46:10;13.80;99.90
25811;DHT22;13645;52.460;13.910;2022-10-16T06:48:38;13.80;99.90
25811;DHT22;13645;52.460;13.910;2022-10-16T06:51:08;13.90;99.90
25811;DHT22;13645;52.460;13.910;2022-10-16T06:53:37;14.00;99.90
25811;DHT22;13645;52.460;13.910;2022-10-16T06:56:18;14.10;99.90
25811;DHT22;13645;52.460;13.910;2022-10-16T06:58:46;14.20;99.90
25811;DHT22;13645;52.460;13.910;2022-10-16T07:01:14;14.30;99.90
25811;DHT22;13645;52.460;13.910;2022-10-16T07:03:42;14.40;99.90
25811;DHT22;13645;52.460;13.910;2022-10-16T07:06:10;14.50;99.90
25811;DHT22;13645;52.460;13.910;2022-10-16T07:08:39;14.60;99.90
25811;DHT22;13645;52.460;13.910;2022-10-16T07:11:14;14.70;99.90
25811;DHT22;13645;52.460;13.910;2022-10-16T07:13:42;14.80;99.90
25811;DHT22;13645;52.460;13.910;2022-10-16T07:16:17;14.80;99.90
25811;DHT22;13645;52.460;13.910;2022-10-16T07:18:45;14.80;99.90
25811;DHT22;13645;52.460;13.910;2022-10-16T07:21:15;15.00;99.90
25811;DHT22;13645;52.460;13.910;2022-10-16T07:23:42;15.00;99.90
25811;DHT22;13645;52.460;13.910;2022-10-16T07:26:10;15.00;99.90
25811;DHT22;13645;52.460;13.910;2022-10-16T07:28:38;15.10;99.90
25811;DHT22;13645;52.460;13.910;2022-10-16T07:31:09;15.10;99.90
25811;DHT22;13645;52.460;13.910;2022-10-16T07:33:38;15.10;99.90
25811;DHT22;13645;52.460;13.910;2022-10-16T07:36:06;15.20;99.90
25811;DHT22;13645;52.460;13.910;2022-10-16T07:38:32;15.20;99.90
25811;DHT22;13645;52.460;13.910;2022-10-16T07:41:01;15.20;99.90
25811;DHT22;13645;52.460;13.910;2022-10-16T07:43:28;15.30;99.90
25811;DHT22;13645;52.460;13.910;2022-10-16T07:45:56;15.50;99.90
25811;DHT22;13645;52.460;13.910;2022-10-16T07:48:28;15.50;99.90
25811;DHT22;13645;52.460;13.910;2022-10-16T07:50:59;15.60;99.90
25811;DHT22;13645;52.460;13.910;2022-10-16T07:53:26;15.70;99.90
25811;DHT22;13645;52.460;13.910;2022-10-16T07:56:00;15.80;99.90
25811;DHT22;13645;52.460;13.910;2022-10-16T07:58:28;16.00;99.90
25811;DHT22;13645;52.460;13.910;2022-10-16T08:00:56;16.10;99.90
25811;DHT22;13645;52.460;13.910;2022-10-16T08:03:23;16.20;99.90
25811;DHT22;13645;52.460;13.910;2022-10-16T08:05:50;16.50;99.90
25811;DHT22;13645;52.460;13.910;2022-10-16T08:08:18;16.70;99.90
25811;DHT22;13645;52.460;13.910;2022-10-16T08:10:45;16.70;99.90
25811;DHT22;13645;52.460;13.910;2022-10-16T08:13:12;16.70;99.90
25811;DHT22;13645;52.460;13.910;2022-10-16T08:15:42;16.70;99.90
25811;DHT22;13645;52.460;13.910;2022-10-16T08:18:10;16.70;99.90
25811;DHT22;13645;52.460;13.910;2022-10-16T08:20:43;16.70;99.90
25811;DHT22;13645;52.460;13.910;2022-10-16T08:23:54;16.60;99.90
25811;DHT22;13645;52.460;13.910;2022-10-16T08:31:14;16.70;99.90
25811;DHT22;13645;52.460;13.910;2022-10-16T08:34:00;16.70;99.90
25811;DHT22;13645;52.460;13.910;2022-10-16T08:36:27;16.80;99.90
25811;DHT22;13645;52.460;13.910;2022-10-16T08:38:53;16.90;99.90
25811;DHT22;13645;52.460;13.910;2022-10-16T08:41:39;17.00;99.90
25811;DHT22;13645;52.460;13.910;2022-10-16T08:47:02;17.10;99.90
25811;DHT22;13645;52.460;13.910;2022-10-16T08:49:33;17.20;99.90
25811;DHT22;13645;52.460;13.910;2022-10-16T08:52:00;17.30;99.90
25811;DHT22;13645;52.460;13.910;2022-10-16T08:54:39;17.40;99.90
25811;DHT22;13645;52.460;13.910;2022-10-16T08:57:17;17.40;99.90
25811;DHT22;13645;52.460;13.910;2022-10-16T08:59:49;17.40;99.90
25811;DHT22;13645;52.460;13.910;2022-10-16T09:02:32;17.40;99.90
25811;DHT22;13645;52.460;13.910;2022-10-16T09:07:47;17.70;99.90
25811;DHT22;13645;52.460;13.910;2022-10-16T09:13:00;17.90;99.90
25811;DHT22;13645;52.460;13.910;2022-10-16T09:15:41;17.90;99.90
25811;DHT22;13645;52.460;13.910;2022-10-16T09:18:27;17.90;99.90
25811;DHT22;13645;52.460;13.910;2022-10-16T09:24:15;17.80;99.90
25811;DHT22;13645;52.460;13.910;2022-10-16T09:26:42;17.70;99.90
25811;DHT22;13645;52.460;13.910;2022-10-16T09:29:13;17.80;99.90
25811;DHT22;13645;52.460;13.910;2022-10-16T09:31:40;17.80;99.90
25811;DHT22;13645;52.460;13.910;2022-10-16T09:34:27;17.90;99.90
25811;DHT22;13645;52.460;13.910;2022-10-16T09:36:57;17.90;99.90
25811;DHT22;13645;52.460;13.910;2022-10-16T09:39:25;18.10;99.90
25811;DHT22;13645;52.460;13.910;2022-10-16T09:41:52;18.20;99.90
25811;DHT22;13645;52.460;13.910;2022-10-16T09:44:25;18.20;99.90
25811;DHT22;13645;52.460;13.910;2022-10-16T09:47:03;18.30;99.90
25811;DHT22;13645;52.460;13.910;2022-10-16T09:49:30;18.40;99.90
25811;DHT22;13645;52.460;13.910;2022-10-16T09:52:05;18.50;99.90
25811;DHT22;13645;52.460;13.910;2022-10-16T09:54:32;18.50;99.90
25811;DHT22;13645;52.460;13.910;2022-10-16T09:57:06;18.50;99.90
25811;DHT22;13645;52.460;13.910;2022-10-16T10:09:42;18.60;99.90
25811;DHT22;13645;52.460;13.910;2022-10-16T10:12:23;18.60;99.90
25811;DHT22;13645;52.460;13.910;2022-10-16T10:15:15;18.60;99.90
25811;DHT22;13645;52.460;13.910;2022-10-16T10:18:27;18.70;99.90
25811;DHT22;13645;52.460;13.910;2022-10-16T10:21:24;18.80;99.90
25811;DHT22;13645;52.460;13.910;2022-10-16T10:24:02;19.00;99.90
25811;DHT22;13645;52.460;13.910;2022-10-16T10:27:15;19.30;99.90
25811;DHT22;13645;52.460;13.910;2022-10-16T10:36:43;19.30;99.90
25811;DHT22;13645;52.460;13.910;2022-10-16T10:45:58;19.20;99.90
25811;DHT22;13645;52.460;13.910;2022-10-16T10:48:51;19.10;99.90
25811;DHT22;13645;52.460;13.910;2022-10-16T10:56:43;19.20;99.90
25811;DHT22;13645;52.460;13.910;2022-10-16T11:05:53;19.40;99.90
25811;DHT22;13645;52.460;13.910;2022-10-16T11:13:06;19.60;99.90
25811;DHT22;13645;52.460;13.910;2022-10-16T11:15:50;20.00;99.90
25811;DHT22;13645;52.460;13.910;2022-10-16T11:29:35;20.40;99.90
25811;DHT22;13645;52.460;13.910;2022-10-16T11:36:27;20.50;99.90
25811;DHT22;13645;52.460;13.910;2022-10-16T11:46:15;22.60;99.90
25811;DHT22;13645;52.460;13.910;2022-10-16T11:49:35;22.80;99.90
25811;DHT22;13645;52.460;13.910;2022-10-16T11:52:25;23.00;99.90
25811;DHT22;13645;52.460;13.910;2022-10-16T11:55:16;22.80;99.90
25811;DHT22;13645;52.460;13.910;2022-10-16T11:58:09;22.50;99.90
25811;DHT22;13645;52.460;13.910;2022-10-16T12:01:24;22.10;99.90
25811;DHT22;13645;52.460;13.910;2022-10-16T12:07:19;21.30;99.90
25811;DHT22;13645;52.460;13.910;2022-10-16T12:10:25;21.10;99.90
25811;DHT22;13645;52.460;13.910;2022-10-16T12:20:35;21.80;99.90
25811;DHT22;13645;52.460;13.910;2022-10-16T12:23:30;22.40;99.90
25811;DHT22;13645;52.460;13.910;2022-10-16T12:26:27;22.50;99.90
25811;DHT22;13645;52.460;13.910;2022-10-16T12:32:37;21.80;99.90
25811;DHT22;13645;52.460;13.910;2022-10-16T12:35:26;21.50;99.90
25811;DHT22;13645;52.460;13.910;2022-10-16T12:38:08;21.20;99.90
25811;DHT22;13645;52.460;13.910;2022-10-16T12:44:49;20.80;99.90
25811;DHT22;13645;52.460;13.910;2022-10-16T12:47:37;20.60;99.90
25811;DHT22;13645;52.460;13.910;2022-10-16T12:50:48;21.00;99.90
25811;DHT22;13645;52.460;13.910;2022-10-16T12:53:27;21.60;99.90
25811;DHT22;13645;52.460;13.910;2022-10-16T12:56:38;22.10;99.90
25811;DHT22;13645;52.460;13.910;2022-10-16T13:08:54;23.10;99.90
25811;DHT22;13645;52.460;13.910;2022-10-16T13:15:16;23.50;99.90
25811;DHT22;13645;52.460;13.910;2022-10-16T13:18:53;23.70;99.90
25811;DHT22;13645;52.460;13.910;2022-10-16T13:28:04;24.20;99.90
25811;DHT22;13645;52.460;13.910;2022-10-16T13:30:59;24.00;99.90
25811;DHT22;13645;52.460;13.910;2022-10-16T13:33:45;24.00;99.90
25811;DHT22;13645;52.460;13.910;2022-10-16T13:36:21;23.60;99.90
25811;DHT22;13645;52.460;13.910;2022-10-16T13:41:44;22.50;99.90
25811;DHT22;13645;52.460;13.910;2022-10-16T13:44:18;22.20;99.90
25811;DHT22;13645;52.460;13.910;2022-10-16T13:50:18;22.40;99.90
25811;DHT22;13645;52.460;13.910;2022-10-16T13:52:55;22.70;99.90
25811;DHT22;13645;52.460;13.910;2022-10-16T13:55:49;22.80;99.90
25811;DHT22;13645;52.460;13.910;2022-10-16T13:58:39;23.10;99.90
25811;DHT22;13645;52.460;13.910;2022-10-16T14:01:27;23.30;99.90
25811;DHT22;13645;52.460;13.910;2022-10-16T14:04:06;23.30;99.90
25811;DHT22;13645;52.460;13.910;2022-10-16T14:06:46;23.20;99.90
25811;DHT22;13645;52.460;13.910;2022-10-16T14:09:29;22.90;99.90
25811;DHT22;13645;52.460;13.910;2022-10-16T14:12:11;22.80;99.90
25811;DHT22;13645;52.460;13.910;2022-10-16T14:14:44;22.80;99.90
25811;DHT22;13645;52.460;13.910;2022-10-16T14:17:31;22.70;99.90
25811;DHT22;13645;52.460;13.910;2022-10-16T14:20:04;22.40;99.90
25811;DHT22;13645;52.460;13.910;2022-10-16T14:22:39;22.20;99.90
25811;DHT22;13645;52.460;13.910;2022-10-16T14:28:23;22.00;99.90
25811;DHT22;13645;52.460;13.910;2022-10-16T14:30:59;22.10;99.90
25811;DHT22;13645;52.460;13.910;2022-10-16T14:36:12;22.00;99.90
25811;DHT22;13645;52.460;13.910;2022-10-16T14:41:20;21.90;99.90
25811;DHT22;13645;52.460;13.910;2022-10-16T14:44:03;21.80;99.90
25811;DHT22;13645;52.460;13.910;2022-10-16T14:46:43;21.60;99.90
25811;DHT22;13645;52.460;13.910;2022-10-16T14:51:41;21.30;99.90
25811;DHT22;13645;52.460;13.910;2022-10-16T14:54:21;21.00;99.90
25811;DHT22;13645;52.460;13.910;2022-10-16T14:57:02;20.80;99.90
25811;DHT22;13645;52.460;13.910;2022-10-16T15:02:08;20.50;99.90
25811;DHT22;13645;52.460;13.910;2022-10-16T15:04:49;20.30;99.90
25811;DHT22;13645;52.460;13.910;2022-10-16T15:07:39;20.20;99.90
25811;DHT22;13645;52.460;13.910;2022-10-16T15:10:16;20.10;99.90
25811;DHT22;13645;52.460;13.910;2022-10-16T15:12:46;20.10;99.90
25811;DHT22;13645;52.460;13.910;2022-10-16T15:17:56;20.00;99.90
25811;DHT22;13645;52.460;13.910;2022-10-16T15:20:29;19.90;99.90
25811;DHT22;13645;52.460;13.910;2022-10-16T15:23:04;19.90;99.90
25811;DHT22;13645;52.460;13.910;2022-10-16T15:25:39;19.80;99.90
25811;DHT22;13645;52.460;13.910;2022-10-16T15:28:12;19.70;99.90
25811;DHT22;13645;52.460;13.910;2022-10-16T15:30:45;19.70;99.90
25811;DHT22;13645;52.460;13.910;2022-10-16T15:33:20;19.60;99.90
25811;DHT22;13645;52.460;13.910;2022-10-16T15:35:53;19.50;99.90
25811;DHT22;13645;52.460;13.910;2022-10-16T15:38:26;19.30;99.70
25811;DHT22;13645;52.460;13.910;2022-10-16T15:40:57;19.20;99.90
25811;DHT22;13645;52.460;13.910;2022-10-16T15:43:31;19.10;99.90
25811;DHT22;13645;52.460;13.910;2022-10-16T15:46:12;18.90;99.90
25811;DHT22;13645;52.460;13.910;2022-10-16T15:48:41;18.80;99.90
25811;DHT22;13645;52.460;13.910;2022-10-16T15:51:18;18.70;99.90
25811;DHT22;13645;52.460;13.910;2022-10-16T15:53:48;18.50;99.90
25811;DHT22;13645;52.460;13.910;2022-10-16T15:56:29;18.30;99.90
25811;DHT22;13645;52.460;13.910;2022-10-16T15:59:23;18.20;99.90
25811;DHT22;13645;52.460;13.910;2022-10-16T16:01:55;18.00;99.90
25811;DHT22;13645;52.460;13.910;2022-10-16T16:04:40;17.90;99.90
25811;DHT22;13645;52.460;13.910;2022-10-16T16:07:13;17.70;99.90
25811;DHT22;13645;52.460;13.910;2022-10-16T16:09:45;17.50;99.90
25811;DHT22;13645;52.460;13.910;2022-10-16T16:12:18;17.40;99.90
25811;DHT22;13645;52.460;13.910;2022-10-16T16:14:47;17.20;99.90
25811;DHT22;13645;52.460;13.910;2022-10-16T16:17:23;17.10;99.90
25811;DHT22;13645;52.460;13.910;2022-10-16T16:19:59;17.00;99.90
25811;DHT22;13645;52.460;13.910;2022-10-16T16:22:28;16.80;99.90
25811;DHT22;13645;52.460;13.910;2022-10-16T16:25:00;16.70;99.90
25811;DHT22;13645;52.460;13.910;2022-10-16T16:27:31;16.50;99.90
25811;DHT22;13645;52.460;13.910;2022-10-16T16:30:15;16.40;99.90
25811;DHT22;13645;52.460;13.910;2022-10-16T16:32:56;16.30;99.90
25811;DHT22;13645;52.460;13.910;2022-10-16T16:35:39;16.10;99.90
25811;DHT22;13645;52.460;13.910;2022-10-16T16:38:08;16.00;99.90
25811;DHT22;13645;52.460;13.910;2022-10-16T16:40:38;15.90;99.90
25811;DHT22;13645;52.460;13.910;2022-10-16T16:43:07;15.80;99.90
25811;DHT22;13645;52.460;13.910;2022-10-16T16:45:37;15.80;99.90
25811;DHT22;13645;52.460;13.910;2022-10-16T16:48:07;15.70;99.90
25811;DHT22;13645;52.460;13.910;2022-10-16T16:50:43;15.60;99.90
25811;DHT22;13645;52.460;13.910;2022-10-16T16:53:10;15.50;99.90
25811;DHT22;13645;52.460;13.910;2022-10-16T16:55:37;15.40;99.90
25811;DHT22;13645;52.460;13.910;2022-10-16T16:58:04;15.30;99.90
25811;DHT22;13645;52.460;13.910;2022-10-16T17:00:31;15.20;99.90
25811;DHT22;13645;52.460;13.910;2022-10-16T17:02:58;15.10;99.90
25811;DHT22;13645;52.460;13.910;2022-10-16T17:05:25;15.00;99.90
25811;DHT22;13645;52.460;13.910;2022-10-16T17:07:52;15.00;99.90
25811;DHT22;13645;52.460;13.910;2022-10-16T17:10:19;14.90;99.90
25811;DHT22;13645;52.460;13.910;2022-10-16T17:12:48;14.80;99.90
25811;DHT22;13645;52.460;13.910;2022-10-16T17:15:15;14.80;99.90
25811;DHT22;13645;52.460;13.910;2022-10-16T17:17:45;14.80;99.90
25811;DHT22;13645;52.460;13.910;2022-10-16T17:20:13;14.70;99.90
25811;DHT22;13645;52.460;13.910;2022-10-16T17:22:40;14.70;99.90
25811;DHT22;13645;52.460;13.910;2022-10-16T17:25:07;14.70;99.90
25811;DHT22;13645;52.460;13.910;2022-10-16T17:27:34;14.70;99.90
25811;DHT22;13645;52.460;13.910;2022-10-16T17:30:03;14.70;99.90
25811;DHT22;13645;52.460;13.910;2022-10-16T17:32:30;14.60;99.90
25811;DHT22;13645;52.460;13.910;2022-10-16T17:34:57;14.60;99.90
25811;DHT22;13645;52.460;13.910;2022-10-16T17:37:24;14.50;99.90
25811;DHT22;13645;52.460;13.910;2022-10-16T17:39:50;14.50;99.90
25811;DHT22;13645;52.460;13.910;2022-10-16T17:42:18;14.40;99.90
25811;DHT22;13645;52.460;13.910;2022-10-16T17:44:48;14.40;99.90
25811;DHT22;13645;52.460;13.910;2022-10-16T17:47:17;14.30;99.90
25811;DHT22;13645;52.460;13.910;2022-10-16T17:49:46;14.20;99.90
25811;DHT22;13645;52.460;13.910;2022-10-16T17:52:18;14.10;99.90
25811;DHT22;13645;52.460;13.910;2022-10-16T17:54:45;14.10;99.90
25811;DHT22;13645;52.460;13.910;2022-10-16T17:57:12;14.00;99.90
25811;DHT22;13645;52.460;13.910;2022-10-16T17:59:41;13.90;99.90
25811;DHT22;13645;52.460;13.910;2022-10-16T18:02:10;13.90;99.90
25811;DHT22;13645;52.460;13.910;2022-10-16T18:04:37;13.90;99.90
25811;DHT22;13645;52.460;13.910;2022-10-16T18:07:06;13.80;99.90
25811;DHT22;13645;52.460;13.910;2022-10-16T18:09:39;13.70;99.90
25811;DHT22;13645;52.460;13.910;2022-10-16T18:12:26;13.70;99.90
25811;DHT22;13645;52.460;13.910;2022-10-16T18:14:54;13.70;99.90
25811;DHT22;13645;52.460;13.910;2022-10-16T18:17:28;13.60;99.90
25811;DHT22;13645;52.460;13.910;2022-10-16T18:20:08;13.50;99.90
25811;DHT22;13645;52.460;13.910;2022-10-16T18:22:41;13.40;99.90
25811;DHT22;13645;52.460;13.910;2022-10-16T18:25:08;13.40;99.90